Time;durP1;ratioP1;P1;durP2;ratioP2;P2;SDS_P1;SDS_P2;PMS_P1;PMS_P2;Temp;Humidity;BMP_temperature;BMP_pressure;BME280_temperature;BME280_humidity;BME280_pressure;Samples;Min_cycle;Max_cycle;Signal;HPM_P1;HPM_P2
2024/03/26 00:00:40;;;;;;;16.15;6.93;;;10.20;88.00;;;;;;6337464;22;20007;-76
2024/03/26 00:03:06;;;;;;;9.57;6.30;;;10.10;88.30;;;;;;6337487;22;20375;-78
2024/03/26 00:05:31;;;;;;;11.10;6.40;;;10.10;89.40;;;;;;6337329;22;20456;-77
2024/03/26 00:07:57;;;;;;;13.97;6.83;;;10.00;88.70;;;;;;6337416;22;20010;-77
2024/03/26 00:10:23;;;;;;;12.77;6.17;;;9.90;89.20;;;;;;6337296;22;20010;-77
2024/03/26 00:12:49;;;;;;;9.77;6.33;;;10.00;88.40;;;;;;6337443;22;20082;-77
2024/03/26 00:15:15;;;;;;;10.80;6.50;;;9.90;88.30;;;;;;6337907;22;19999;-78
2024/03/26 00:17:41;;;;;;;11.17;6.60;;;9.90;88.20;;;;;;6337505;22;20081;-74
2024/03/26 00:20:07;;;;;;;11.57;6.43;;;9.90;87.90;;;;;;6337507;22;20011;-78
2024/03/26 00:22:33;;;;;;;10.10;6.83;;;9.90;87.50;;;;;;6337908;22;20013;-76
2024/03/26 00:24:59;;;;;;;12.00;6.93;;;9.90;88.30;;;;;;6337833;22;19999;-72
2024/03/26 00:27:25;;;;;;;10.23;6.43;;;9.90;88.00;;;;;;6337131;22;20098;-78
2024/03/26 00:29:51;;;;;;;11.13;6.07;;;9.90;88.40;;;;;;6337470;22;20006;-77
2024/03/26 00:32:17;;;;;;;10.40;6.70;;;9.90;88.30;;;;;;6338144;22;19995;-76
2024/03/26 00:34:42;;;;;;;11.80;7.43;;;9.90;88.80;;;;;;6337440;22;20048;-77
2024/03/26 00:37:08;;;;;;;11.83;7.80;;;9.90;87.70;;;;;;6338269;22;20027;-76
2024/03/26 00:39:34;;;;;;;14.57;7.70;;;9.90;88.40;;;;;;6338167;22;20520;-77
2024/03/26 00:42:00;;;;;;;15.60;8.10;;;9.70;87.60;;;;;;6337859;22;20420;-75
2024/03/26 00:57:53;;;;;;;15.53;9.13;;;9.60;87.00;;;;;;6337595;22;20014;-77
2024/03/26 01:00:47;;;;;;;16.63;8.37;;;9.70;86.90;;;;;;6181446;23;20426;-77
2024/03/26 01:13:25;;;;;;;13.40;7.73;;;9.30;90.00;;;;;;6166372;22;20010;-77
2024/03/26 01:15:51;;;;;;;14.60;7.57;;;9.30;90.10;;;;;;6336996;22;20375;-77
2024/03/26 01:18:17;;;;;;;13.27;8.13;;;9.20;89.80;;;;;;6335920;22;20044;-74
2024/03/26 01:20:44;;;;;;;15.53;7.27;;;9.20;90.10;;;;;;6333794;22;20015;-76
2024/03/26 01:23:10;;;;;;;9.77;6.90;;;9.10;90.50;;;;;;6333534;22;19995;-76
2024/03/26 01:25:36;;;;;;;9.83;5.50;;;9.00;90.50;;;;;;6335876;22;20309;-76
2024/03/26 01:28:03;;;;;;;9.03;4.30;;;9.10;90.30;;;;;;6335138;22;20357;-76
2024/03/26 01:30:29;;;;;;;6.80;4.10;;;9.00;88.10;;;;;;6335084;22;19999;-74
2024/03/26 01:32:55;;;;;;;9.17;4.17;;;9.00;87.70;;;;;;6333914;22;20009;-74
2024/03/26 01:35:20;;;;;;;6.53;3.53;;;8.90;88.40;;;;;;6334818;22;20002;-72
2024/03/26 01:37:47;;;;;;;8.67;4.07;;;9.00;87.80;;;;;;6335381;22;20038;-74
2024/03/26 01:40:14;;;;;;;6.03;3.93;;;9.00;88.20;;;;;;6334160;22;19995;-74
2024/03/26 01:42:40;;;;;;;9.00;4.33;;;9.10;87.70;;;;;;6306604;22;20002;-74
2024/03/26 01:45:07;;;;;;;6.50;4.97;;;9.10;86.10;;;;;;6307140;22;20044;-73
2024/03/26 01:47:35;;;;;;;8.77;4.80;;;9.10;87.00;;;;;;6337193;22;20314;-70
2024/03/26 01:50:10;;;;;;;9.67;4.43;;;9.20;87.70;;;;;;6338248;22;20013;-74
2024/03/26 01:52:36;;;;;;;9.43;5.00;;;9.00;88.70;;;;;;6337788;22;20026;-69
2024/03/26 01:55:04;;;;;;;8.47;4.90;;;8.90;89.90;;;;;;6336988;22;20032;-68
2024/03/26 01:57:30;;;;;;;10.13;4.40;;;8.70;90.30;;;;;;6337505;22;19995;-69
2024/03/26 01:59:56;;;;;;;5.83;3.87;;;8.80;90.00;;;;;;6307192;22;20064;-69
2024/03/26 02:02:22;;;;;;;7.43;3.77;;;8.80;89.20;;;;;;6334342;22;20324;-67
2024/03/26 02:04:48;;;;;;;6.83;4.10;;;8.80;89.50;;;;;;6335621;22;20003;-68
2024/03/26 02:07:20;;;;;;;5.53;3.80;;;8.80;90.00;;;;;;6337466;22;20005;-68
2024/03/26 02:09:49;;;;;;;6.53;3.90;;;8.80;90.10;;;;;;6338162;22;20009;-69
2024/03/26 02:12:15;;;;;;;6.83;4.20;;;8.90;89.50;;;;;;6339394;22;19999;-69
2024/03/26 02:14:41;;;;;;;8.50;4.37;;;8.90;89.50;;;;;;6339630;22;20006;-77
2024/03/26 02:17:07;;;;;;;6.37;3.80;;;8.90;90.10;;;;;;6339109;22;20321;-72
2024/03/26 02:19:33;;;;;;;10.60;3.77;;;8.80;90.80;;;;;;6339034;22;20015;-77
2024/03/26 02:21:59;;;;;;;7.97;4.10;;;8.70;90.80;;;;;;6338691;22;20003;-76
2024/03/26 02:24:33;;;;;;;6.60;4.00;;;8.80;90.00;;;;;;6338759;22;20455;-76
2024/03/26 02:27:42;;;;;;;6.27;3.23;;;8.90;89.80;;;;;;6336795;22;20073;-75
2024/03/26 02:47:22;;;;;;;8.50;4.60;;;8.80;87.90;;;;;;6183425;23;20364;-77
2024/03/26 02:53:43;;;;;;;9.63;5.33;;;8.80;90.00;;;;;;6094260;23;20033;-77
2024/03/26 02:56:09;;;;;;;9.80;5.13;;;8.80;88.90;;;;;;6095086;23;20385;-76
2024/03/26 02:58:35;;;;;;;9.23;4.60;;;8.80;89.60;;;;;;6288783;22;20011;-77
2024/03/26 03:01:09;;;;;;;7.57;4.47;;;8.80;89.50;;;;;;6338332;22;20314;-77
2024/03/26 03:03:37;;;;;;;7.83;4.53;;;8.70;89.90;;;;;;6338306;22;20298;-77
2024/03/26 03:06:07;;;;;;;7.77;4.40;;;8.70;90.10;;;;;;6338513;22;20014;-77
2024/03/26 03:08:34;;;;;;;7.27;4.37;;;8.70;90.40;;;;;;6338310;22;20397;-76
2024/03/26 03:11:00;;;;;;;9.50;4.30;;;8.70;90.60;;;;;;6338359;22;20321;-77
2024/03/26 03:13:26;;;;;;;8.37;4.07;;;8.50;90.30;;;;;;6338394;22;19999;-77
2024/03/26 03:15:51;;;;;;;6.97;4.20;;;8.50;91.10;;;;;;6338427;22;20018;-74
2024/03/26 03:18:18;;;;;;;8.73;3.90;;;8.50;90.80;;;;;;6337481;22;20002;-76
2024/03/26 03:20:44;;;;;;;7.77;3.40;;;8.40;91.10;;;;;;6337757;22;20358;-77
2024/03/26 03:23:10;;;;;;;6.60;4.03;;;8.40;90.80;;;;;;6338159;22;20029;-75
2024/03/26 03:25:36;;;;;;;6.93;3.47;;;8.40;91.20;;;;;;6337404;22;19998;-76
2024/03/26 03:28:02;;;;;;;7.40;3.63;;;8.40;90.60;;;;;;6337305;22;20428;-76
2024/03/26 03:30:28;;;;;;;7.57;3.70;;;8.40;90.10;;;;;;6337419;22;20002;-77
2024/03/26 03:32:54;;;;;;;10.77;4.60;;;8.50;89.40;;;;;;6338046;22;20006;-76
2024/03/26 03:35:20;;;;;;;5.87;3.67;;;8.50;89.70;;;;;;6337695;22;19999;-73
2024/03/26 03:37:46;;;;;;;6.63;4.00;;;8.50;90.80;;;;;;6337604;22;20002;-74
2024/03/26 03:40:12;;;;;;;6.57;3.93;;;8.40;90.80;;;;;;6337845;22;20006;-75
2024/03/26 03:42:38;;;;;;;7.20;4.27;;;8.50;90.80;;;;;;6309819;22;19995;-74
2024/03/26 03:45:06;;;;;;;6.13;3.60;;;8.50;90.90;;;;;;6337868;22;20009;-74
2024/03/26 03:47:32;;;;;;;5.63;3.60;;;8.50;91.20;;;;;;6336540;22;20006;-74
2024/03/26 03:49:58;;;;;;;6.33;3.50;;;8.40;91.10;;;;;;6336028;22;20009;-76
2024/03/26 03:52:24;;;;;;;6.93;3.20;;;8.40;91.10;;;;;;6336613;22;20435;-77
2024/03/26 03:54:50;;;;;;;7.17;3.23;;;8.40;90.70;;;;;;6337281;22;20002;-76
2024/03/26 03:57:16;;;;;;;11.43;2.83;;;8.30;90.50;;;;;;6338311;22;20165;-77
2024/03/26 03:59:43;;;;;;;5.17;2.43;;;8.30;90.60;;;;;;6337961;22;20137;-76
2024/03/26 04:02:09;;;;;;;7.00;2.50;;;8.30;90.00;;;;;;6338577;22;19994;-75
2024/03/26 04:04:35;;;;;;;6.90;2.50;;;8.30;90.50;;;;;;6338965;22;20085;-77
2024/03/26 04:07:01;;;;;;;5.63;3.10;;;8.30;90.20;;;;;;6338595;22;20034;-76
2024/03/26 04:16:27;;;;;;;;;;;;;;;;;;;;;
2024/03/26 04:22:22;;;;;;;5.17;2.40;;;8.40;85.70;;;;;;6116630;23;20030;-75
2024/03/26 04:31:13;;;;;;;4.37;2.53;;;8.40;83.70;;;;;;6193920;23;20054;-74
2024/03/26 04:36:43;;;;;;;9.60;3.27;;;8.30;86.90;;;;;;6185203;23;20462;-73
2024/03/26 04:39:09;;;;;;;9.37;3.20;;;8.30;87.70;;;;;;6251771;22;20512;-76
2024/03/26 04:41:36;;;;;;;6.10;3.70;;;8.20;88.40;;;;;;6307209;22;20345;-76
2024/03/26 04:44:02;;;;;;;5.57;3.27;;;8.20;89.00;;;;;;6307150;22;20003;-73
2024/03/26 04:46:30;;;;;;;11.20;3.67;;;8.20;89.50;;;;;;6303406;22;20368;-74
2024/03/26 04:48:56;;;;;;;9.13;3.33;;;8.10;89.90;;;;;;6304127;22;20011;-75
2024/03/26 04:51:22;;;;;;;9.80;3.60;;;8.10;89.80;;;;;;6305239;22;20022;-76
2024/03/26 04:53:48;;;;;;;9.00;3.70;;;8.10;90.00;;;;;;6305899;22;20003;-76
2024/03/26 04:56:14;;;;;;;6.33;3.33;;;8.10;89.70;;;;;;6305176;22;20329;-75
2024/03/26 04:58:42;;;;;;;7.00;3.27;;;8.10;90.10;;;;;;6304465;22;20003;-73
2024/03/26 05:01:08;;;;;;;10.73;3.60;;;8.10;90.40;;;;;;6305079;22;20045;-75
2024/03/26 05:03:34;;;;;;;6.60;3.23;;;8.10;90.10;;;;;;6304772;22;20007;-74
2024/03/26 05:06:00;;;;;;;6.03;3.40;;;8.00;90.60;;;;;;6304549;22;20010;-74
2024/03/26 05:08:25;;;;;;;5.30;2.80;;;8.00;90.10;;;;;;6305812;22;20011;-77
2024/03/26 05:10:51;;;;;;;10.17;3.10;;;8.00;90.60;;;;;;6306219;22;20033;-74
2024/03/26 05:13:17;;;;;;;9.07;2.50;;;8.00;90.50;;;;;;6305473;22;20011;-75
2024/03/26 05:15:43;;;;;;;4.67;2.00;;;7.90;90.20;;;;;;6305769;22;19999;-73
2024/03/26 05:18:09;;;;;;;5.63;2.20;;;8.00;90.20;;;;;;6305703;22;19999;-76
2024/03/26 05:20:35;;;;;;;6.93;2.20;;;8.00;88.60;;;;;;6306147;22;20036;-68
2024/03/26 05:23:01;;;;;;;3.67;2.33;;;8.00;90.80;;;;;;6334070;22;20022;-68
2024/03/26 05:25:27;;;;;;;3.80;2.07;;;8.00;90.20;;;;;;6339728;22;19995;-69
2024/03/26 05:27:52;;;;;;;3.23;1.93;;;8.00;90.30;;;;;;6340008;22;20011;-68
2024/03/26 05:30:18;;;;;;;5.80;2.47;;;8.10;89.80;;;;;;6340108;22;20021;-69
2024/03/26 05:32:44;;;;;;;7.33;2.37;;;8.10;89.80;;;;;;6339719;22;19999;-68
2024/03/26 05:35:10;;;;;;;5.33;2.83;;;8.10;88.70;;;;;;6340367;22;20006;-69
2024/03/26 05:37:37;;;;;;;8.77;2.50;;;8.20;90.30;;;;;;6339900;22;20002;-69
2024/03/26 05:40:03;;;;;;;10.10;2.97;;;8.20;90.40;;;;;;6340350;22;20044;-75
2024/03/26 05:42:29;;;;;;;13.47;3.67;;;8.30;90.00;;;;;;6340743;22;20147;-76
2024/03/26 05:44:55;;;;;;;18.83;3.87;;;8.30;88.80;;;;;;6340576;22;19995;-76
2024/03/26 05:47:21;;;;;;;16.83;3.30;;;8.30;88.90;;;;;;6340055;22;20888;-75
2024/03/26 05:49:47;;;;;;;13.47;3.47;;;8.30;90.20;;;;;;6340203;22;20358;-75
2024/03/26 05:52:14;;;;;;;12.60;3.57;;;8.30;89.40;;;;;;6339226;22;20375;-76
2024/03/26 05:55:38;;;;;;;12.03;3.80;;;8.30;90.00;;;;;;6338851;22;20003;-76
2024/03/26 05:58:34;;;;;;;17.48;3.42;;;8.30;90.00;;;;;;6337795;22;20288;-76
2024/03/26 06:08:34;;;;;;;12.27;4.10;;;8.20;91.10;;;;;;6048141;23;20025;-76
2024/03/26 06:11:46;;;;;;;16.80;4.03;;;8.20;91.30;;;;;;6002451;23;20011;-77
2024/03/26 06:14:18;;;;;;;11.07;3.67;;;8.20;91.60;;;;;;6064770;23;20003;-76
2024/03/26 06:17:25;;;;;;;16.17;3.90;;;8.30;91.90;;;;;;6065094;23;20007;-75
2024/03/26 06:20:24;;;;;;;14.97;3.63;;;8.40;92.20;;;;;;5951446;24;20012;-76
2024/03/26 06:22:50;;;;;;;16.47;4.43;;;8.50;91.80;;;;;;6050421;23;20029;-75
2024/03/26 06:25:16;;;;;;;14.23;3.30;;;8.60;92.30;;;;;;6239044;22;20376;-77
2024/03/26 06:27:42;;;;;;;10.37;2.67;;;8.60;92.80;;;;;;6338691;22;20324;-75
2024/03/26 06:30:09;;;;;;;5.07;1.90;;;8.70;91.90;;;;;;6338365;22;19999;-73
2024/03/26 06:32:34;;;;;;;4.23;1.70;;;8.70;91.00;;;;;;6337467;22;19999;-76
2024/03/26 06:35:00;;;;;;;5.83;1.80;;;8.80;89.70;;;;;;6339458;22;20011;-77
2024/03/26 06:37:26;;;;;;;12.00;3.13;;;9.00;88.30;;;;;;6339202;22;20421;-71
2024/03/26 06:39:52;;;;;;;10.70;3.10;;;9.10;87.80;;;;;;6337216;22;20007;-72
2024/03/26 06:42:18;;;;;;;10.47;3.00;;;9.20;90.60;;;;;;6336313;22;19995;-74
2024/03/26 06:44:43;;;;;;;8.90;3.10;;;9.30;90.70;;;;;;6337265;22;19999;-74
2024/03/26 06:47:10;;;;;;;10.03;3.30;;;9.40;90.90;;;;;;6336058;22;20074;-75
2024/03/26 06:49:36;;;;;;;11.10;3.13;;;9.50;91.20;;;;;;6335877;22;20042;-75
2024/03/26 06:52:02;;;;;;;12.77;3.30;;;9.50;91.00;;;;;;6338631;22;20006;-70
2024/03/26 06:54:28;;;;;;;15.73;3.27;;;9.60;90.80;;;;;;6339010;22;20053;-76
2024/03/26 06:56:54;;;;;;;9.93;2.93;;;9.70;90.70;;;;;;6339292;22;20001;-75
2024/03/26 06:59:19;;;;;;;12.83;2.80;;;9.70;90.50;;;;;;6338846;22;20056;-77
2024/03/26 07:01:45;;;;;;;7.70;2.93;;;9.80;90.60;;;;;;6338895;22;19999;-76
2024/03/26 07:04:11;;;;;;;18.40;4.10;;;9.80;90.70;;;;;;6311163;22;20025;-75
2024/03/26 07:06:37;;;;;;;9.33;3.33;;;9.80;90.10;;;;;;6339052;22;20065;-76
2024/03/26 07:09:04;;;;;;;14.13;3.83;;;9.80;91.20;;;;;;6338754;22;20010;-75
2024/03/26 07:11:30;;;;;;;19.43;3.70;;;9.80;90.50;;;;;;6338280;22;19999;-75
2024/03/26 07:13:56;;;;;;;20.20;4.53;;;9.80;90.80;;;;;;6337116;22;20006;-76
2024/03/26 07:16:22;;;;;;;18.67;4.23;;;9.80;91.10;;;;;;6335002;22;20045;-72
2024/03/26 07:18:48;;;;;;;34.37;5.27;;;9.80;91.20;;;;;;6335386;22;20304;-79
2024/03/26 07:21:14;;;;;;;14.00;4.53;;;9.80;91.30;;;;;;6337104;22;20020;-79
2024/03/26 07:23:40;;;;;;;24.07;3.83;;;9.90;91.90;;;;;;6338694;22;20006;-79
2024/03/26 07:26:06;;;;;;;11.77;3.47;;;10.00;91.80;;;;;;6339428;22;20005;-79
2024/03/26 07:28:32;;;;;;;19.23;3.77;;;10.00;90.80;;;;;;6338626;22;20399;-76
2024/03/26 07:30:58;;;;;;;12.17;3.07;;;10.20;90.10;;;;;;6339797;22;20468;-76
2024/03/26 07:33:25;;;;;;;16.63;2.87;;;10.30;88.50;;;;;;6339078;22;20006;-76
2024/03/26 07:36:38;;;;;;;8.70;3.10;;;10.40;87.80;;;;;;6338246;22;20077;-76
2024/03/26 07:50:07;;;;;;;23.58;3.50;;;11.30;83.50;;;;;;6338944;22;20021;-80
2024/03/26 07:56:06;;;;;;;20.95;4.68;;;11.70;82.00;;;;;;6172511;23;20460;-79
2024/03/26 07:59:23;;;;;;;19.83;4.13;;;11.90;80.80;;;;;;6093994;23;20322;-83
2024/03/26 08:01:52;;;;;;;15.82;3.17;;;11.90;79.40;;;;;;6098810;23;20016;-83
2024/03/26 08:04:18;;;;;;;9.30;3.03;;;12.00;78.90;;;;;;6318836;22;20460;-81
2024/03/26 08:06:44;;;;;;;10.50;2.30;;;12.10;78.40;;;;;;6338773;22;19994;-82
2024/03/26 08:09:10;;;;;;;7.32;2.17;;;12.10;78.40;;;;;;6338236;22;20007;-82
2024/03/26 08:11:36;;;;;;;6.28;1.88;;;12.10;76.90;;;;;;6338752;22;20006;-83
2024/03/26 08:14:02;;;;;;;2.47;1.38;;;12.20;75.30;;;;;;6338607;22;19999;-81
2024/03/26 08:16:29;;;;;;;3.83;1.00;;;12.20;74.70;;;;;;6338522;22;19995;-83
2024/03/26 08:18:54;;;;;;;3.70;0.95;;;12.20;73.60;;;;;;6338237;22;20009;-83
2024/03/26 08:21:20;;;;;;;1.35;0.80;;;12.30;73.90;;;;;;6338055;22;20496;-79
2024/03/26 08:23:46;;;;;;;2.08;0.70;;;12.30;74.10;;;;;;6338105;22;20060;-79
2024/03/26 08:26:12;;;;;;;1.40;0.50;;;12.30;71.40;;;;;;6337803;22;20027;-70
2024/03/26 08:28:37;;;;;;;1.42;0.55;;;12.40;72.20;;;;;;6338450;22;20034;-81
2024/03/26 08:31:03;;;;;;;8.68;1.00;;;12.40;70.90;;;;;;6338498;22;20022;-84
2024/03/26 08:33:29;;;;;;;7.80;1.40;;;12.40;71.20;;;;;;6310531;22;20101;-79
2024/03/26 08:35:55;;;;;;;2.42;0.70;;;12.50;72.80;;;;;;6338505;22;20084;-78
2024/03/26 08:38:20;;;;;;;4.07;1.00;;;12.50;74.00;;;;;;6338680;22;20002;-79
2024/03/26 08:40:47;;;;;;;1.83;0.85;;;12.50;72.20;;;;;;6338372;22;19994;-69
2024/03/26 08:43:12;;;;;;;11.23;1.58;;;12.50;73.10;;;;;;6337680;22;20389;-69
2024/03/26 08:45:39;;;;;;;4.32;1.17;;;12.50;73.00;;;;;;6337153;22;19995;-69
2024/03/26 08:48:06;;;;;;;2.67;1.27;;;12.60;72.00;;;;;;6337501;22;20010;-70
2024/03/26 08:50:32;;;;;;;8.30;2.30;;;12.60;72.30;;;;;;6337777;22;20015;-69
2024/03/26 08:52:57;;;;;;;5.97;1.88;;;12.60;77.70;;;;;;6338007;22;20002;-69
2024/03/26 08:55:23;;;;;;;2.65;0.80;;;12.70;74.70;;;;;;6337315;22;20007;-69
2024/03/26 08:57:49;;;;;;;8.63;1.55;;;12.70;73.10;;;;;;6338250;22;20009;-70
2024/03/26 09:00:15;;;;;;;5.38;1.20;;;12.70;73.80;;;;;;6338507;22;20044;-82
2024/03/26 09:02:42;;;;;;;3.72;0.90;;;12.70;76.00;;;;;;6338936;22;20006;-82
2024/03/26 09:05:08;;;;;;;2.67;0.75;;;12.70;77.90;;;;;;6339027;22;19999;-82
2024/03/26 09:07:35;;;;;;;1.00;0.57;;;12.70;74.50;;;;;;6338482;22;20011;-82
2024/03/26 09:10:06;;;;;;;3.17;0.85;;;12.70;72.70;;;;;;6338597;22;20369;-81
2024/03/26 09:12:51;;;;;;;3.72;0.60;;;12.70;73.80;;;;;;6338704;22;20002;-78
2024/03/26 09:30:08;;;;;;;2.58;0.55;;;12.80;75.00;;;;;;5870569;24;20038;-82
2024/03/26 09:32:37;;;;;;;3.35;0.65;;;12.80;70.70;;;;;;5896926;24;20017;-78
2024/03/26 09:35:45;;;;;;;5.55;0.68;;;12.80;70.90;;;;;;6013780;23;20026;-79
2024/03/26 09:38:22;;;;;;;2.95;0.70;;;12.80;72.60;;;;;;5955154;23;20009;-77
2024/03/26 09:40:53;;;;;;;4.40;0.70;;;12.90;74.60;;;;;;6036645;23;20402;-78
2024/03/26 09:43:20;;;;;;;1.00;0.57;;;12.90;75.50;;;;;;6223639;22;20488;-77
2024/03/26 09:45:46;;;;;;;5.47;0.98;;;13.00;76.30;;;;;;6306697;22;20329;-78
2024/03/26 09:48:12;;;;;;;2.42;0.70;;;13.00;75.90;;;;;;6306559;22;20387;-81
2024/03/26 09:50:40;;;;;;;2.72;0.60;;;13.00;78.50;;;;;;6306818;22;20000;-77
2024/03/26 09:53:09;;;;;;;2.75;0.50;;;13.00;76.00;;;;;;6279102;22;20357;-77
2024/03/26 09:55:37;;;;;;;2.72;0.82;;;13.00;73.30;;;;;;6302642;22;20007;-81
2024/03/26 09:58:03;;;;;;;0.60;0.40;;;13.10;73.40;;;;;;6303028;22;19999;-83
2024/03/26 10:00:33;;;;;;;3.42;1.02;;;13.10;75.00;;;;;;6304704;22;20003;-82
2024/03/26 10:03:00;;;;;;;4.70;1.02;;;13.10;75.70;;;;;;6306148;22;20003;-81
2024/03/26 10:05:28;;;;;;;4.90;0.68;;;13.10;76.00;;;;;;6306276;22;20003;-80
2024/03/26 10:07:55;;;;;;;3.30;0.63;;;13.10;75.80;;;;;;6307472;22;20448;-82
2024/03/26 10:10:22;;;;;;;3.85;0.70;;;13.10;76.20;;;;;;6308417;22;20007;-82
2024/03/26 10:12:48;;;;;;;5.35;0.73;;;13.10;76.00;;;;;;6280908;22;20392;-80
2024/03/26 10:15:14;;;;;;;4.45;0.68;;;13.10;75.70;;;;;;6308135;22;20030;-82
2024/03/26 10:17:40;;;;;;;1.05;0.50;;;13.10;75.50;;;;;;6307899;22;19995;-82
2024/03/26 10:20:07;;;;;;;2.97;0.80;;;13.10;76.30;;;;;;6308046;22;20014;-83
2024/03/26 10:22:34;;;;;;;2.10;0.90;;;13.20;76.90;;;;;;6284798;22;20396;-83
2024/03/26 10:25:00;;;;;;;2.85;0.90;;;13.20;76.60;;;;;;6339443;22;20010;-82
2024/03/26 10:27:26;;;;;;;2.78;1.10;;;13.20;77.80;;;;;;6339630;22;20003;-82
2024/03/26 10:29:52;;;;;;;3.40;1.05;;;13.20;79.10;;;;;;6339297;22;20007;-80
2024/03/26 10:32:22;;;;;;;1.42;0.70;;;13.30;78.50;;;;;;6339338;22;20019;-82
2024/03/26 10:34:56;;;;;;;7.72;2.00;;;13.30;78.50;;;;;;6339372;22;20025;-79
2024/03/26 10:37:24;;;;;;;2.65;0.80;;;13.40;78.30;;;;;;6311128;22;20006;-81
2024/03/26 10:40:01;;;;;;;4.80;1.00;;;13.40;77.20;;;;;;6339752;22;20033;-85
2024/03/26 10:42:28;;;;;;;6.32;0.85;;;13.50;76.60;;;;;;6340012;22;20436;-82
2024/03/26 10:44:57;;;;;;;3.33;0.68;;;13.50;77.60;;;;;;6340227;22;20380;-81
2024/03/26 10:47:24;;;;;;;3.47;0.77;;;13.60;76.80;;;;;;6312149;22;20002;-83
2024/03/26 10:49:52;;;;;;;4.05;0.77;;;13.60;75.90;;;;;;6339668;22;20014;-81
2024/03/26 10:53:10;;;;;;;3.63;0.75;;;13.60;75.00;;;;;;6338780;22;20001;-84
2024/03/26 10:59:20;;;;;;;1.25;0.75;;;13.70;77.10;;;;;;6339778;22;20006;-83
2024/03/26 11:12:38;;;;;;;1.35;0.68;;;13.90;75.10;;;;;;6015547;23;21345;-83
2024/03/26 11:15:50;;;;;;;2.78;0.90;;;13.90;75.30;;;;;;6123886;23;20021;-82
2024/03/26 11:19:07;;;;;;;4.30;0.90;;;13.90;76.20;;;;;;6327902;22;20394;-80
2024/03/26 11:21:40;;;;;;;1.27;0.70;;;14.00;74.30;;;;;;6202484;22;20109;-84
2024/03/26 11:25:05;;;;;;;6.25;0.82;;;14.00;74.70;;;;;;6311124;22;20007;-83
2024/03/26 11:27:32;;;;;;;2.63;0.77;;;14.00;74.40;;;;;;6222158;23;20008;-83
2024/03/26 11:29:58;;;;;;;2.22;0.80;;;14.10;73.40;;;;;;6244278;23;20000;-80
2024/03/26 11:32:27;;;;;;;5.18;1.05;;;14.00;73.80;;;;;;6289208;22;20313;-90
2024/03/26 11:35:19;;;;;;;1.45;0.65;;;14.10;75.10;;;;;;6338653;22;20017;-87
2024/03/26 11:37:47;;;;;;;4.70;0.98;;;14.10;75.00;;;;;;6339197;22;20026;-84
2024/03/26 11:40:14;;;;;;;4.97;0.90;;;14.10;74.50;;;;;;6339382;22;20324;-86
2024/03/26 11:42:40;;;;;;;1.92;0.90;;;14.10;74.30;;;;;;6339362;22;20003;-87
2024/03/26 11:45:09;;;;;;;2.22;0.90;;;14.00;72.50;;;;;;6339154;22;20072;-85
2024/03/26 11:47:34;;;;;;;3.97;0.98;;;14.10;72.80;;;;;;6339046;22;20006;-85
2024/03/26 11:50:01;;;;;;;8.48;1.48;;;14.00;73.40;;;;;;6339345;22;20073;-84
2024/03/26 11:52:27;;;;;;;6.03;1.50;;;14.00;73.00;;;;;;6339216;22;20006;-85
2024/03/26 11:54:56;;;;;;;3.38;0.98;;;14.00;73.30;;;;;;6339043;22;20034;-85
2024/03/26 11:57:23;;;;;;;11.10;1.05;;;14.00;72.80;;;;;;6338990;22;20019;-89
2024/03/26 11:59:50;;;;;;;4.32;0.80;;;14.00;74.10;;;;;;6338961;22;20051;-87
2024/03/26 12:02:16;;;;;;;6.53;0.95;;;14.10;75.70;;;;;;6311555;22;20378;-87
2024/03/26 12:04:43;;;;;;;3.90;0.82;;;14.10;76.40;;;;;;6338910;22;20026;-83
2024/03/26 12:07:13;;;;;;;6.60;0.98;;;14.00;75.40;;;;;;6342559;22;20429;-74
2024/03/26 12:09:39;;;;;;;6.18;2.08;;;14.00;75.40;;;;;;6338485;22;20037;-69
2024/03/26 12:12:09;;;;;;;11.95;3.45;;;14.00;76.20;;;;;;6338702;22;19995;-70
2024/03/26 12:14:35;;;;;;;2.83;1.60;;;14.00;75.80;;;;;;6338711;22;19999;-70
2024/03/26 12:17:03;;;;;;;6.28;3.20;;;14.00;76.10;;;;;;6338866;22;20316;-69
2024/03/26 12:19:29;;;;;;;6.07;3.10;;;14.00;76.60;;;;;;6340230;22;20465;-72
2024/03/26 12:21:55;;;;;;;4.05;2.00;;;14.00;76.50;;;;;;6339101;22;20298;-69
2024/03/26 12:24:21;;;;;;;18.25;11.32;;;14.00;76.50;;;;;;6338789;22;20003;-69
2024/03/26 12:26:47;;;;;;;41.13;36.80;;;13.90;75.60;;;;;;6338568;22;20062;-69
2024/03/26 12:29:13;;;;;;;16.63;14.88;;;13.90;76.40;;;;;;6339515;22;20049;-83
2024/03/26 12:31:39;;;;;;;13.95;3.83;;;13.90;76.60;;;;;;6339680;22;20000;-86
2024/03/26 12:34:13;;;;;;;5.25;1.70;;;13.90;76.60;;;;;;6339794;22;20347;-89
2024/03/26 12:36:40;;;;;;;9.02;1.13;;;13.90;76.80;;;;;;6339840;22;20407;-88
2024/03/26 12:39:08;;;;;;;1.92;0.80;;;13.90;77.70;;;;;;6340387;22;20013;-85
2024/03/26 13:06:18;;;;;;;16.20;7.78;;;13.80;77.80;;;;;;5951641;24;20008;-87
2024/03/26 13:08:44;;;;;;;6.78;2.40;;;13.80;78.40;;;;;;5952029;24;20420;-84
2024/03/26 13:11:12;;;;;;;3.50;1.00;;;13.80;78.60;;;;;;6021060;23;20382;-85
2024/03/26 13:13:39;;;;;;;2.92;1.05;;;13.80;77.00;;;;;;6207006;22;20373;-84
2024/03/26 13:16:06;;;;;;;2.53;1.00;;;13.80;76.70;;;;;;6338880;22;20373;-87
2024/03/26 13:18:32;;;;;;;5.05;1.30;;;13.70;77.20;;;;;;6338672;22;20068;-87
2024/03/26 13:20:58;;;;;;;4.28;1.20;;;13.70;78.60;;;;;;6338790;22;19994;-85
2024/03/26 13:23:24;;;;;;;2.67;0.98;;;13.70;79.10;;;;;;6338672;22;20332;-83
2024/03/26 13:25:50;;;;;;;6.90;1.23;;;13.60;79.20;;;;;;6311090;22;20006;-86
2024/03/26 13:28:16;;;;;;;4.35;1.20;;;13.60;80.80;;;;;;6338200;22;20011;-87
2024/03/26 13:30:42;;;;;;;4.20;1.20;;;13.60;82.70;;;;;;6338590;22;20036;-87
2024/03/26 13:33:08;;;;;;;6.28;1.15;;;13.60;82.90;;;;;;6338852;22;20421;-86
2024/03/26 13:35:33;;;;;;;4.88;1.30;;;13.60;84.10;;;;;;6338703;22;19999;-80
2024/03/26 13:37:59;;;;;;;4.60;1.17;;;13.50;84.70;;;;;;6338230;22;19995;-88
2024/03/26 13:40:25;;;;;;;6.03;1.83;;;13.50;85.30;;;;;;6338387;22;20034;-85
2024/03/26 13:42:51;;;;;;;5.88;1.33;;;13.40;86.60;;;;;;6339548;22;20077;-82
2024/03/26 13:45:17;;;;;;;8.13;1.50;;;13.40;86.10;;;;;;6340003;22;20003;-86
2024/03/26 13:47:43;;;;;;;5.93;1.55;;;13.40;87.10;;;;;;6339674;22;20099;-80
2024/03/26 13:50:08;;;;;;;5.10;1.50;;;13.40;88.40;;;;;;6339819;22;20002;-87
2024/03/26 13:52:34;;;;;;;9.05;1.50;;;13.30;90.80;;;;;;6340190;22;19995;-87
2024/03/26 13:55:01;;;;;;;6.82;1.50;;;13.30;91.50;;;;;;6340268;22;20005;-88
2024/03/26 13:57:29;;;;;;;2.70;1.30;;;13.20;92.60;;;;;;6339945;22;20074;-89
2024/03/26 13:59:55;;;;;;;8.65;1.38;;;13.20;92.90;;;;;;6338985;22;19999;-87
2024/03/26 14:02:20;;;;;;;8.27;1.75;;;13.20;93.30;;;;;;6340004;22;20074;-88
2024/03/26 14:04:47;;;;;;;5.72;1.88;;;13.20;93.70;;;;;;6339997;22;19999;-87
2024/03/26 14:07:13;;;;;;;7.90;1.65;;;13.20;95.30;;;;;;6339824;22;20003;-88
2024/03/26 14:09:40;;;;;;;5.97;1.48;;;13.20;95.20;;;;;;6314438;22;20021;-88
2024/03/26 14:12:08;;;;;;;4.85;1.50;;;13.20;95.40;;;;;;6339780;22;19995;-87
2024/03/26 14:14:35;;;;;;;4.35;1.38;;;13.10;95.40;;;;;;6340287;22;19999;-80
2024/03/26 14:17:02;;;;;;;6.05;1.55;;;13.10;95.90;;;;;;6340613;22;20371;-84
2024/03/26 14:22:52;;;;;;;4.43;1.58;;;13.10;96.60;;;;;;6214678;23;20020;-88
2024/03/26 14:28:26;;;;;;;4.17;1.60;;;13.00;97.30;;;;;;6183434;23;20504;-89
2024/03/26 14:31:31;;;;;;;4.82;1.88;;;13.00;97.90;;;;;;6213845;23;20232;-82
2024/03/26 14:38:17;;;;;;;7.50;1.80;;;13.00;97.10;;;;;;5981347;24;20012;-84
2024/03/26 14:41:36;;;;;;;3.45;1.73;;;13.00;96.60;;;;;;5981049;24;20018;-86
2024/03/26 14:44:46;;;;;;;3.85;1.75;;;13.00;98.40;;;;;;5871558;24;20097;-86
2024/03/26 14:47:12;;;;;;;5.28;2.63;;;13.00;99.40;;;;;;5969274;23;20012;-84
2024/03/26 14:49:39;;;;;;;9.20;2.00;;;13.00;98.70;;;;;;6008358;23;20376;-80
2024/03/26 14:52:05;;;;;;;6.70;2.22;;;13.00;98.40;;;;;;6191651;22;20340;-86
2024/03/26 14:54:31;;;;;;;6.45;2.40;;;13.00;98.50;;;;;;6339767;22;20009;-89
2024/03/26 14:56:56;;;;;;;10.23;1.67;;;13.00;99.90;;;;;;6339679;22;20078;-85
2024/03/26 14:59:22;;;;;;;3.60;2.10;;;13.00;99.80;;;;;;6339139;22;20002;-89
2024/03/26 15:01:48;;;;;;;4.97;2.22;;;13.00;99.90;;;;;;6338882;22;19999;-85
2024/03/26 15:04:14;;;;;;;5.47;2.47;;;13.00;99.90;;;;;;6338066;22;20073;-88
2024/03/26 15:06:40;;;;;;;8.35;2.42;;;13.00;99.90;;;;;;6339815;22;20055;-85
2024/03/26 15:09:06;;;;;;;9.65;2.38;;;13.00;99.90;;;;;;6339683;22;20014;-90
2024/03/26 15:11:32;;;;;;;7.18;2.03;;;13.00;99.90;;;;;;6312389;22;20378;-89
2024/03/26 15:13:57;;;;;;;4.50;2.00;;;13.00;99.90;;;;;;6339129;22;19999;-85
2024/03/26 15:16:23;;;;;;;5.28;1.92;;;13.00;99.40;;;;;;6336843;22;20008;-87
2024/03/26 15:18:49;;;;;;;7.63;2.90;;;13.00;99.90;;;;;;6339325;22;20019;-90
2024/03/26 15:21:15;;;;;;;6.50;2.45;;;13.00;99.90;;;;;;6338530;22;20006;-78
2024/03/26 15:23:41;;;;;;;7.40;2.88;;;13.00;99.90;;;;;;6335481;22;20069;-79
2024/03/26 15:26:06;;;;;;;5.85;2.47;;;13.00;99.90;;;;;;6339664;22;19995;-69
2024/03/26 15:34:00;;;;;;;5.43;2.63;;;13.00;99.90;;;;;;6339275;22;20106;-68
2024/03/26 15:36:26;;;;;;;7.85;2.85;;;13.00;99.90;;;;;;6311151;22;20440;-68